KBMT/BMT METAR and TAF weather

Enter ICAO airport designator
Station Type Date Time Source
KBMT METAR 2021/05/12 23:55 UTC NOAA

KBMT 122355Z AUTO 01012G17KT 10SM OVC014 20/17 A3013 RMK AO2 T02020166 10251 20202


Station Type Date Time Source
KBMT Decoded METAR 2021/05/12 23:55 UTC NOAA

Station name not available
May 12, 2021 - 07:55 PM EDT / 2021.05.12 2355 UTC
Wind: from the N (010 degrees) at 14 MPH (12 KT) gusting to 20 MPH (17 KT):0
Visibility: 10 mile(s):0
Sky conditions: overcast
Temperature: 68.4 F (20.2 C)
Dew Point: 61.9 F (16.6 C)
Relative Humidity: 79%
Pressure (altimeter): 30.13 in. Hg (1020 hPa)
ob: KBMT 122355Z AUTO 01012G17KT 10SM OVC014 20/17 A3013 RMK AO2 T02020166 10251 20202
cycle: 0

Station Type Date Time Source
KBMT TAF UTC NOAA

Error!

Example: see airport list